Archival Weather

Heathrow

London, United Kingdom (EGLL)

Report from: Sunday, March 19, 2023 6:20 PM GMT
Current time: Tuesday, February 27, 2024 10:29 AM GMT

Current weather – Weather history – Daily summaries
Weather forecast

Temperature10.0°C (50.0°F)
Wind chill8.2°C (46.7°F)
Dew point4.0°C (39.2°F)
Winds 7 kts (3.6 m/s, 8.1 mph) West-Southwest (240°)
Visibility6.2 mi. (10 km)
Clouds Ceiling: Broken clouds 4,400 ft. (1,341 m)
Altimeter30.06 in.Hg (1018 mB)
Relative humidity66 %
Density altitude-639 ft. (-195 m)
Remarks Fully automated report
Flight conditions Visual Meteorological Conditions
Raw dataEGLL 191820Z AUTO 24007KT 9999 BKN044 10/04 Q1018
An error has occurred. This application may no longer respond until reloaded. Reload 🗙